createdAt,value
2017-09-18T00:00:23.843Z,100367.26
2017-09-18T00:01:32.030Z,100374.49
2017-09-18T00:02:38.731Z,100363.82
2017-09-18T00:03:46.262Z,100363.98
2017-09-18T00:04:54.461Z,100370.07
2017-09-18T00:06:01.387Z,100361.81
2017-09-18T00:07:08.459Z,100363.57
2017-09-18T00:08:14.907Z,100361.48
2017-09-18T00:09:21.383Z,100366.50
2017-09-18T00:10:27.788Z,100361.78
2017-09-18T00:11:33.986Z,100363.38
2017-09-18T00:12:40.611Z,100359.92
2017-09-18T00:13:47.372Z,100366.44
2017-09-18T00:14:54.306Z,100362.87
2017-09-18T00:16:00.906Z,100365.89
2017-09-18T00:17:07.609Z,100361.25
2017-09-18T00:18:13.869Z,100364.61
2017-09-18T00:19:20.688Z,100363.19
2017-09-18T00:20:26.963Z,100371.02
2017-09-18T00:21:33.284Z,100371.28
2017-09-18T00:22:39.802Z,100363.64
2017-09-18T00:23:47.382Z,100368.14
2017-09-18T00:24:53.756Z,100372.14
2017-09-18T00:25:59.860Z,100364.07
2017-09-18T00:27:07.250Z,100363.14
2017-09-18T00:28:13.512Z,100366.00
2017-09-18T00:29:19.832Z,100363.72
2017-09-18T00:30:25.400Z,100361.75
2017-09-18T00:31:32.041Z,100367.11
2017-09-18T00:32:38.463Z,100360.59
2017-09-18T00:33:44.757Z,100368.70
2017-09-18T00:34:51.127Z,100369.56
2017-09-18T00:35:57.381Z,100366.17
2017-09-18T00:37:03.726Z,100371.66
2017-09-18T00:38:10.112Z,100369.00
2017-09-18T00:39:16.746Z,100371.08
2017-09-18T00:40:23.171Z,100369.64
2017-09-18T00:41:29.340Z,100373.36
2017-09-18T00:42:35.769Z,100373.61
2017-09-18T00:43:41.942Z,100369.45
2017-09-18T00:44:48.200Z,100367.00
2017-09-18T00:45:54.494Z,100369.83
2017-09-18T00:47:01.237Z,100374.12
2017-09-18T00:48:07.764Z,100367.42
2017-09-18T00:49:14.480Z,100369.67
2017-09-18T00:50:20.271Z,100365.84
2017-09-18T00:51:25.893Z,100369.32
2017-09-18T00:52:31.884Z,100362.01
2017-09-18T00:53:37.319Z,100364.71
2017-09-18T00:54:43.982Z,100360.31
2017-09-18T00:55:50.385Z,100363.83
2017-09-18T00:56:56.716Z,100365.73
2017-09-18T00:58:03.317Z,100362.80
2017-09-18T00:59:09.850Z,100367.62
2017-09-18T01:00:17.782Z,100363.67
2017-09-18T01:01:24.119Z,100366.52
2017-09-18T01:02:30.319Z,100366.89
2017-09-18T01:03:37.338Z,100363.43
2017-09-18T01:04:43.667Z,100368.47
2017-09-18T01:05:49.959Z,100363.01
2017-09-18T01:06:55.756Z,100365.18
2017-09-18T01:08:01.913Z,100367.44
2017-09-18T01:09:08.174Z,100364.27
2017-09-18T01:10:16.170Z,100367.50
2017-09-18T01:11:22.541Z,100362.23
2017-09-18T01:12:28.776Z,100359.78
2017-09-18T01:13:35.161Z,100361.67
2017-09-18T01:14:41.678Z,100357.69
2017-09-18T01:15:47.816Z,100362.04
2017-09-18T01:16:54.411Z,100364.92
2017-09-18T01:18:00.634Z,100361.41
2017-09-18T01:19:07.678Z,100361.98
2017-09-18T01:20:15.160Z,100366.94
2017-09-18T01:21:21.623Z,100362.33
2017-09-18T01:22:28.829Z,100362.94
2017-09-18T01:23:35.345Z,100359.39
2017-09-18T01:24:41.667Z,100362.97
2017-09-18T01:25:48.218Z,100360.84
2017-09-18T01:26:54.600Z,100364.33
2017-09-18T01:28:01.207Z,100362.47
2017-09-18T01:29:09.574Z,100359.13
2017-09-18T01:30:15.872Z,100357.16
2017-09-18T01:31:23.636Z,100357.37
2017-09-18T01:32:30.968Z,100355.28
2017-09-18T01:33:37.284Z,100364.27
2017-09-18T01:34:44.531Z,100354.09
2017-09-18T01:35:50.826Z,100354.20
2017-09-18T01:36:57.330Z,100351.41
2017-09-18T01:38:03.592Z,100349.42
2017-09-18T01:39:10.102Z,100350.64
2017-09-18T01:40:16.190Z,100352.63
2017-09-18T01:41:22.691Z,100351.03
2017-09-18T01:42:29.309Z,100353.70
2017-09-18T01:43:35.586Z,100353.81
2017-09-18T01:44:42.581Z,100351.12
2017-09-18T01:45:49.772Z,100354.52
2017-09-18T01:46:56.366Z,100349.72
2017-09-18T01:48:03.312Z,100351.40
2017-09-18T01:49:09.735Z,100346.53
2017-09-18T01:50:16.674Z,100348.98
2017-09-18T01:51:22.947Z,100344.50
2017-09-18T01:52:29.403Z,100347.02
2017-09-18T01:53:36.011Z,100341.79
2017-09-18T01:54:42.135Z,100344.83
2017-09-18T01:55:48.828Z,100340.92
2017-09-18T01:56:55.264Z,100343.09
2017-09-18T01:58:01.711Z,100335.23
2017-09-18T01:59:09.092Z,100334.32
2017-09-18T02:00:15.759Z,100336.87
2017-09-18T02:01:22.296Z,100335.98
2017-09-18T02:02:28.356Z,100333.75
2017-09-18T02:03:34.730Z,100336.33
2017-09-18T02:04:40.766Z,100334.97
2017-09-18T02:05:47.580Z,100337.06
2017-09-18T02:06:53.994Z,100342.63
2017-09-18T02:08:00.330Z,100340.02
2017-09-18T02:09:07.451Z,100337.12
2017-09-18T02:10:14.258Z,100338.50
2017-09-18T02:11:20.569Z,100340.14
2017-09-18T02:12:27.851Z,100347.43
2017-09-18T02:13:34.724Z,100345.67
2017-09-18T02:14:41.294Z,100346.97
2017-09-18T02:15:47.620Z,100346.10
2017-09-18T02:16:53.934Z,100350.06
2017-09-18T02:18:00.962Z,100349.63
2017-09-18T02:19:07.204Z,100352.69
2017-09-18T02:20:13.712Z,100350.62
2017-09-18T02:21:20.131Z,100350.06
2017-09-18T02:22:26.536Z,100349.84
2017-09-18T02:23:33.388Z,100350.98
2017-09-18T02:24:40.201Z,100349.06
2017-09-18T02:25:46.720Z,100349.75
2017-09-18T02:26:53.948Z,100353.48
2017-09-18T02:28:02.325Z,100350.53
2017-09-18T02:29:08.597Z,100346.95
2017-09-18T02:30:15.544Z,100346.80
2017-09-18T02:31:21.748Z,100345.73
2017-09-18T02:32:28.172Z,100342.34
2017-09-18T02:33:34.671Z,100346.16
2017-09-18T02:34:41.103Z,100343.74
2017-09-18T02:35:47.515Z,100346.50
2017-09-18T02:36:54.844Z,100353.16
2017-09-18T02:38:01.152Z,100348.23
2017-09-18T02:39:08.091Z,100349.70
2017-09-18T02:40:14.483Z,100355.36
2017-09-18T02:41:20.914Z,100355.50
2017-09-18T02:42:27.342Z,100353.60
2017-09-18T02:43:34.720Z,100362.79
2017-09-18T02:44:41.391Z,100364.23
2017-09-18T02:45:47.952Z,100369.09
2017-09-18T02:46:55.023Z,100363.95
2017-09-18T02:48:01.084Z,100363.96
2017-09-18T02:49:07.530Z,100368.39
2017-09-18T02:50:15.351Z,100367.97
2017-09-18T02:51:21.638Z,100369.70
2017-09-18T02:52:28.116Z,100370.64
2017-09-18T02:53:34.541Z,100372.38
2017-09-18T02:54:41.065Z,100372.22
2017-09-18T02:55:47.385Z,100370.56
2017-09-18T02:56:54.054Z,100367.17
2017-09-18T02:58:00.714Z,100369.67
2017-09-18T02:59:07.131Z,100366.92
2017-09-18T03:00:13.444Z,100363.48
2017-09-18T03:01:20.669Z,100361.00
2017-09-18T03:02:27.023Z,100363.31
2017-09-18T03:03:33.599Z,100367.77
2017-09-18T03:04:39.812Z,100367.91
2017-09-18T03:05:45.865Z,100366.23
2017-09-18T03:06:52.536Z,100368.34
2017-09-18T03:07:58.852Z,100369.66
2017-09-18T03:09:04.442Z,100374.97
2017-09-18T03:10:11.778Z,100371.52
2017-09-18T03:11:18.499Z,100371.58
2017-09-18T03:12:24.939Z,100377.21
2017-09-18T03:13:31.123Z,100373.77
2017-09-18T03:14:37.850Z,100377.23
2017-09-18T03:15:44.520Z,100377.23
2017-09-18T03:16:50.963Z,100373.34
2017-09-18T03:17:57.418Z,100377.23
2017-09-18T03:19:04.497Z,100370.30
2017-09-18T03:20:10.939Z,100374.48
2017-09-18T03:21:17.179Z,100374.41
2017-09-18T03:22:23.508Z,100370.93
2017-09-18T03:23:29.978Z,100368.69
2017-09-18T03:24:36.493Z,100373.30
2017-09-18T03:25:42.815Z,100370.77
2017-09-18T03:26:49.404Z,100371.95
2017-09-18T03:27:56.145Z,100370.17
2017-09-18T03:29:02.867Z,100364.14
2017-09-18T03:30:09.384Z,100368.83
2017-09-18T03:31:15.732Z,100368.69
2017-09-18T03:32:21.928Z,100369.64
2017-09-18T03:33:28.523Z,100368.00
2017-09-18T03:34:35.282Z,100366.69
2017-09-18T03:35:41.543Z,100366.00
2017-09-18T03:36:48.004Z,100369.70
2017-09-18T03:37:54.608Z,100368.97
2017-09-18T03:39:01.335Z,100372.16
2017-09-18T03:40:07.513Z,100371.36
2017-09-18T03:41:13.831Z,100372.53
2017-09-18T03:42:20.384Z,100371.91
2017-09-18T03:43:26.564Z,100374.70
2017-09-18T03:44:32.664Z,100368.33
2017-09-18T03:45:38.860Z,100369.98
2017-09-18T03:46:45.812Z,100372.59
2017-09-18T03:47:53.167Z,100377.45
2017-09-18T03:49:05.154Z,100379.30
2017-09-18T03:50:36.317Z,100382.86
2017-09-18T03:51:43.691Z,100386.84
2017-09-18T03:52:50.825Z,100389.86
2017-09-18T03:53:56.945Z,100391.17
2017-09-18T03:55:03.461Z,100394.66
2017-09-18T03:56:10.403Z,100390.08
2017-09-18T03:57:16.877Z,100386.66
2017-09-18T03:58:23.511Z,100385.14
2017-09-18T03:59:29.475Z,100393.33
2017-09-18T04:00:36.032Z,100386.00
2017-09-18T04:01:42.364Z,100384.50
2017-09-18T04:02:48.541Z,100393.53
2017-09-18T04:03:55.055Z,100392.58
2017-09-18T04:05:01.443Z,100390.56
2017-09-18T04:06:08.305Z,100392.55
2017-09-18T04:07:14.901Z,100394.77
2017-09-18T04:08:22.446Z,100393.18
2017-09-18T04:09:30.994Z,100391.98
2017-09-18T04:10:38.054Z,100393.91
2017-09-18T04:11:44.684Z,100391.88
2017-09-18T04:12:51.433Z,100393.13
2017-09-18T04:13:58.060Z,100392.19
2017-09-18T04:15:05.034Z,100395.50
2017-09-18T04:16:12.434Z,100389.89
2017-09-18T04:17:19.511Z,100388.28
2017-09-18T04:18:26.968Z,100393.12
2017-09-18T04:19:33.986Z,100392.26
2017-09-18T04:20:42.959Z,100395.78
2017-09-18T04:21:50.965Z,100392.70
2017-09-18T04:22:58.904Z,100395.34
2017-09-18T04:24:06.721Z,100396.67
2017-09-18T04:25:15.640Z,100388.01
2017-09-18T04:26:24.292Z,100396.66
2017-09-18T04:27:32.546Z,100400.98
2017-09-18T04:28:41.287Z,100397.09
2017-09-18T04:29:49.481Z,100398.91
2017-09-18T04:30:58.450Z,100393.82
2017-09-18T04:32:07.363Z,100398.23
2017-09-18T04:33:15.891Z,100394.40
2017-09-18T04:34:23.341Z,100399.16
2017-09-18T04:35:32.718Z,100399.02
2017-09-18T04:36:42.605Z,100401.52
2017-09-18T04:37:51.601Z,100399.41
2017-09-18T04:39:00.576Z,100398.91
2017-09-18T04:40:09.452Z,100402.07
2017-09-18T04:41:18.501Z,100409.50
2017-09-18T04:42:27.673Z,100404.25
2017-09-18T04:43:37.546Z,100402.95
2017-09-18T04:44:49.830Z,100409.06
2017-09-18T04:46:03.477Z,100407.84
2017-09-18T04:47:12.478Z,100398.90
2017-09-18T04:48:20.740Z,100398.97
2017-09-18T04:49:30.629Z,100399.17
2017-09-18T04:50:43.665Z,100404.53
2017-09-18T04:51:53.607Z,100407.42
2017-09-18T04:53:03.555Z,100405.97
2017-09-18T04:54:12.631Z,100406.70
2017-09-18T04:55:23.628Z,100411.98
2017-09-18T04:56:32.556Z,100403.68
2017-09-18T04:57:42.513Z,100411.86
2017-09-18T04:58:52.449Z,100415.86
2017-09-18T05:00:03.738Z,100415.59
2017-09-18T05:01:14.514Z,100410.60
2017-09-18T05:02:23.683Z,100419.84
2017-09-18T05:03:33.690Z,100416.32
2017-09-18T05:04:43.681Z,100415.52
2017-09-18T05:05:54.616Z,100425.42
2017-09-18T05:07:04.576Z,100411.61
2017-09-18T05:08:14.747Z,100418.90
2017-09-18T05:09:25.714Z,100422.88
2017-09-18T05:10:35.595Z,100421.08
2017-09-18T05:11:45.738Z,100424.20
2017-09-18T05:12:58.779Z,100422.66
2017-09-18T05:14:11.769Z,100424.26
2017-09-18T05:15:22.612Z,100423.52
2017-09-18T05:16:33.683Z,100424.91
2017-09-18T05:17:43.724Z,100425.14
2017-09-18T05:18:56.607Z,100427.52
2017-09-18T05:20:07.642Z,100428.82
2017-09-18T05:21:18.588Z,100426.23
2017-09-18T05:22:27.526Z,100426.01
2017-09-18T05:23:38.115Z,100425.58
2017-09-18T05:24:47.636Z,100423.05
2017-09-18T05:25:57.627Z,100420.45
2017-09-18T05:27:07.667Z,100424.26
2017-09-18T05:28:18.590Z,100427.50
2017-09-18T05:29:29.614Z,100424.55
2017-09-18T05:30:40.298Z,100427.18
2017-09-18T05:31:50.566Z,100423.81
2017-09-18T05:33:00.596Z,100425.35
2017-09-18T05:34:09.499Z,100429.17
2017-09-18T05:35:22.690Z,100429.70
2017-09-18T05:36:33.576Z,100424.92
2017-09-18T05:37:44.475Z,100425.50
2017-09-18T05:38:56.544Z,100426.40
2017-09-18T05:40:20.344Z,100432.14
2017-09-18T05:41:30.557Z,100428.20
2017-09-18T05:42:41.719Z,100426.39
2017-09-18T05:43:50.664Z,100421.55
2017-09-18T05:45:02.476Z,100431.10
2017-09-18T05:46:12.463Z,100433.02
2017-09-18T05:47:22.762Z,100434.75
2017-09-18T05:48:32.494Z,100432.77
2017-09-18T05:49:45.488Z,100432.58
2017-09-18T05:50:57.501Z,100434.68
2017-09-18T05:52:07.604Z,100432.94
2017-09-18T05:53:18.566Z,100440.07
2017-09-18T05:54:40.593Z,100435.62
2017-09-18T05:55:50.477Z,100444.08
2017-09-18T05:57:01.158Z,100443.51
2017-09-18T05:58:11.592Z,100439.55
2017-09-18T05:59:22.602Z,100441.42
2017-09-18T06:00:32.514Z,100437.42
2017-09-18T06:01:43.508Z,100439.43
2017-09-18T06:02:53.516Z,100436.75
2017-09-18T06:04:04.486Z,100438.73
2017-09-18T06:05:14.443Z,100430.89
2017-09-18T06:06:25.653Z,100431.66
2017-09-18T06:07:34.451Z,100439.40
2017-09-18T06:08:44.726Z,100442.45
2017-09-18T06:09:53.427Z,100442.32
2017-09-18T06:11:03.474Z,100443.92
2017-09-18T06:12:14.404Z,100443.73
2017-09-18T06:13:25.348Z,100444.03
2017-09-18T06:14:34.370Z,100448.66
2017-09-18T06:15:43.489Z,100443.66
2017-09-18T06:16:53.434Z,100446.42
2017-09-18T06:18:02.448Z,100442.84
2017-09-18T06:19:12.484Z,100445.02
2017-09-18T06:20:22.443Z,100447.93
2017-09-18T06:21:32.427Z,100455.17
2017-09-18T06:22:43.439Z,100454.68
2017-09-18T06:23:55.509Z,100453.17
2017-09-18T06:25:05.445Z,100455.50
2017-09-18T06:26:16.460Z,100455.53
2017-09-18T06:27:27.488Z,100459.36
2017-09-18T06:28:37.777Z,100458.55
2017-09-18T06:29:48.481Z,100457.70
2017-09-18T06:30:58.350Z,100451.94
2017-09-18T06:32:08.493Z,100456.59
2017-09-18T06:33:18.503Z,100455.66
2017-09-18T06:34:28.520Z,100458.11
2017-09-18T06:35:38.572Z,100457.05
2017-09-18T06:36:48.511Z,100453.13
2017-09-18T06:37:58.500Z,100457.02
2017-09-18T06:39:08.408Z,100463.13
2017-09-18T06:40:18.450Z,100457.27
2017-09-18T06:41:30.442Z,100455.47
2017-09-18T06:42:40.356Z,100455.48
2017-09-18T06:43:50.412Z,100457.16
2017-09-18T06:45:00.410Z,100459.50
2017-09-18T06:46:10.483Z,100462.23
2017-09-18T06:47:20.375Z,100460.48
2017-09-18T06:48:31.424Z,100463.33
2017-09-18T06:49:41.226Z,100465.09
2017-09-18T06:50:50.547Z,100467.47
2017-09-18T06:51:59.348Z,100473.84
2017-09-18T06:53:09.624Z,100468.66
2017-09-18T06:54:19.449Z,100472.92
2017-09-18T06:55:30.418Z,100466.27
2017-09-18T06:56:40.375Z,100474.78
2017-09-18T06:57:50.434Z,100475.55
2017-09-18T06:59:00.327Z,100471.95
2017-09-18T07:00:10.319Z,100477.95
2017-09-18T07:01:20.580Z,100476.28
2017-09-18T07:02:31.387Z,100478.33
2017-09-18T07:03:41.351Z,100474.97
2017-09-18T07:04:51.363Z,100481.28
2017-09-18T07:06:01.306Z,100479.03
2017-09-18T07:07:11.472Z,100480.53
2017-09-18T07:08:22.340Z,100482.17
2017-09-18T07:09:32.372Z,100486.91
2017-09-18T07:10:43.407Z,100484.47
2017-09-18T07:11:53.291Z,100489.16
2017-09-18T07:13:03.357Z,100485.69
2017-09-18T07:14:16.278Z,100484.73
2017-09-18T07:15:27.305Z,100488.49
2017-09-18T07:16:38.405Z,100486.52
2017-09-18T07:17:48.451Z,100489.95
2017-09-18T07:18:58.469Z,100494.36
2017-09-18T07:20:08.404Z,100487.36
2017-09-18T07:21:21.454Z,100494.87
2017-09-18T07:22:32.347Z,100494.92
2017-09-18T07:23:42.339Z,100498.39
2017-09-18T07:24:52.266Z,100492.38
2017-09-18T07:26:02.320Z,100497.63
2017-09-18T07:27:15.225Z,100503.27
2017-09-18T07:28:25.274Z,100499.84
2017-09-18T07:29:35.283Z,100498.25
2017-09-18T07:30:45.359Z,100505.05
2017-09-18T07:31:55.270Z,100502.90
2017-09-18T07:33:05.198Z,100499.32
2017-09-18T07:34:18.321Z,100499.20
2017-09-18T07:35:28.408Z,100495.11
2017-09-18T07:36:38.307Z,100503.77
2017-09-18T07:37:50.587Z,100497.67
2017-09-18T07:39:01.259Z,100499.99
2017-09-18T07:40:10.199Z,100502.23
2017-09-18T07:41:22.188Z,100497.80
2017-09-18T07:42:33.155Z,100496.41
2017-09-18T07:43:45.307Z,100496.95
2017-09-18T07:44:54.328Z,100498.59
2017-09-18T07:46:04.364Z,100496.77
2017-09-18T07:47:14.567Z,100503.55
2017-09-18T07:48:23.256Z,100494.49
2017-09-18T07:49:32.581Z,100501.00
2017-09-18T07:50:43.344Z,100503.17
2017-09-18T07:51:54.250Z,100497.95
2017-09-18T07:53:04.251Z,100502.17
2017-09-18T07:54:15.565Z,100503.56
2017-09-18T07:55:25.396Z,100506.78
2017-09-18T07:56:35.212Z,100505.75
2017-09-18T07:57:45.749Z,100505.87
2017-09-18T07:58:55.187Z,100508.72
2017-09-18T08:00:06.252Z,100507.44
2017-09-18T08:01:15.159Z,100517.35
2017-09-18T08:02:25.209Z,100508.89
2017-09-18T08:03:36.178Z,100505.43
2017-09-18T08:04:45.394Z,100506.53
2017-09-18T08:05:54.058Z,100507.12
2017-09-18T08:07:03.123Z,100513.77
2017-09-18T08:08:13.319Z,100507.77
2017-09-18T08:09:23.094Z,100508.25
2017-09-18T08:10:33.238Z,100510.96
2017-09-18T08:11:44.274Z,100510.11
2017-09-18T08:12:54.184Z,100510.89
2017-09-18T08:14:05.255Z,100511.04
2017-09-18T08:15:15.182Z,100504.78
2017-09-18T08:16:25.122Z,100505.59
2017-09-18T08:17:34.036Z,100508.79
2017-09-18T08:18:45.142Z,100507.02
2017-09-18T08:19:55.105Z,100502.19
2017-09-18T08:21:06.138Z,100509.42
2017-09-18T08:22:16.097Z,100510.77
2017-09-18T08:23:27.147Z,100505.53
2017-09-18T08:24:36.832Z,100504.13
2017-09-18T08:25:46.131Z,100503.08
2017-09-18T08:26:56.120Z,100509.78
2017-09-18T08:28:05.909Z,100507.84
2017-09-18T08:29:15.177Z,100502.38
2017-09-18T08:30:24.073Z,100505.45
2017-09-18T08:31:34.042Z,100505.63
2017-09-18T08:32:43.120Z,100506.02
2017-09-18T08:33:53.228Z,100505.77
2017-09-18T08:35:02.155Z,100509.45
2017-09-18T08:36:12.401Z,100506.25
2017-09-18T08:37:21.762Z,100501.91
2017-09-18T08:38:31.184Z,100500.22
2017-09-18T08:39:41.089Z,100496.84
2017-09-18T08:40:51.106Z,100506.38
2017-09-18T08:42:01.126Z,100498.45
2017-09-18T08:43:10.988Z,100500.42
2017-09-18T08:44:20.009Z,100497.59
2017-09-18T08:45:31.190Z,100501.17
2017-09-18T08:46:41.074Z,100496.94
2017-09-18T08:47:50.017Z,100496.27
2017-09-18T08:49:00.101Z,100499.39
2017-09-18T08:50:09.303Z,100495.69
2017-09-18T08:51:18.212Z,100495.35
2017-09-18T08:52:28.199Z,100491.43
2017-09-18T08:53:36.290Z,100501.14
2017-09-18T08:54:46.117Z,100492.83
2017-09-18T08:55:55.990Z,100496.19
2017-09-18T08:57:09.259Z,100494.09
2017-09-18T08:58:23.165Z,100490.25
2017-09-18T08:59:34.046Z,100494.66
2017-09-18T09:00:42.970Z,100487.82
2017-09-18T09:01:51.993Z,100491.98
2017-09-18T09:03:03.387Z,100487.39
2017-09-18T09:04:13.859Z,100492.59
2017-09-18T09:05:24.107Z,100491.06
2017-09-18T09:06:34.113Z,100486.94
2017-09-18T09:07:44.126Z,100487.73
2017-09-18T09:08:54.976Z,100484.66
2017-09-18T09:10:04.085Z,100482.90
2017-09-18T09:11:14.273Z,100479.42
2017-09-18T09:12:23.395Z,100477.51
2017-09-18T09:13:35.212Z,100483.35
2017-09-18T09:17:28.112Z,100479.15
2017-09-18T09:18:40.100Z,100479.82
2017-09-18T09:19:51.162Z,100477.61
2017-09-18T09:21:02.362Z,100479.64
2017-09-18T09:22:12.355Z,100478.81
2017-09-18T09:23:24.143Z,100481.11
2017-09-18T09:24:34.144Z,100481.55
2017-09-18T09:25:45.994Z,100483.16
2017-09-18T09:26:56.682Z,100482.83
2017-09-18T09:28:04.944Z,100483.53
2017-09-18T09:29:15.996Z,100481.89
2017-09-18T09:30:25.156Z,100487.70
2017-09-18T09:31:34.706Z,100483.11
2017-09-18T09:32:44.028Z,100484.70
2017-09-18T09:33:55.062Z,100480.23
2017-09-18T09:35:04.157Z,100488.20
2017-09-18T09:36:14.953Z,100485.09
2017-09-18T09:37:24.959Z,100479.69
2017-09-18T09:38:35.918Z,100484.91
2017-09-18T09:39:45.036Z,100481.59
2017-09-18T09:40:55.072Z,100479.45
2017-09-18T09:42:04.068Z,100475.83
2017-09-18T09:43:15.002Z,100472.05
2017-09-18T09:44:24.919Z,100472.13
2017-09-18T09:45:34.959Z,100474.06
2017-09-18T09:46:44.063Z,100465.55
2017-09-18T09:47:54.970Z,100468.37
2017-09-18T09:49:04.845Z,100467.98
2017-09-18T09:50:15.769Z,100470.34
2017-09-18T09:51:25.011Z,100474.42
2017-09-18T09:52:34.894Z,100470.87
2017-09-18T09:53:45.058Z,100472.11
2017-09-18T09:54:55.035Z,100471.28
2017-09-18T09:56:06.981Z,100477.41
2017-09-18T09:57:17.048Z,100469.52
2017-09-18T09:58:26.075Z,100470.42
2017-09-18T09:59:36.903Z,100470.34
2017-09-18T10:00:46.884Z,100468.64
2017-09-18T10:01:57.057Z,100472.03
2017-09-18T10:03:04.768Z,100465.56
2017-09-18T10:04:13.924Z,100471.70
2017-09-18T10:05:23.568Z,100466.88
2017-09-18T10:06:35.969Z,100464.24
2017-09-18T10:07:47.019Z,100470.97
2017-09-18T10:08:56.865Z,100469.99
2017-09-18T10:10:07.243Z,100468.03
2017-09-18T10:11:16.164Z,100469.75
2017-09-18T10:12:26.878Z,100469.33
2017-09-18T10:13:36.901Z,100464.61
2017-09-18T10:14:46.757Z,100464.06
2017-09-18T10:15:56.852Z,100468.67
2017-09-18T10:17:05.653Z,100476.04
2017-09-18T10:18:14.876Z,100471.42
2017-09-18T10:19:25.862Z,100471.56
2017-09-18T10:20:36.868Z,100476.09
2017-09-18T10:21:46.901Z,100472.23
2017-09-18T10:22:55.776Z,100470.17
2017-09-18T10:24:06.940Z,100472.88
2017-09-18T10:25:17.121Z,100471.59
2017-09-18T10:26:25.897Z,100473.50
2017-09-18T10:27:38.071Z,100473.82
2017-09-18T10:28:47.873Z,100482.12
2017-09-18T10:29:57.748Z,100471.47
2017-09-18T10:31:05.972Z,100476.00
2017-09-18T10:32:16.935Z,100472.09
2017-09-18T10:33:41.954Z,100473.92
2017-09-18T10:34:50.894Z,100473.63
2017-09-18T10:35:59.824Z,100478.63
2017-09-18T10:37:08.936Z,100480.75
2017-09-18T10:38:19.833Z,100483.00
2017-09-18T10:39:29.742Z,100478.67
2017-09-18T10:40:38.953Z,100479.89
2017-09-18T10:41:47.755Z,100482.45
2017-09-18T10:42:57.147Z,100479.80
2017-09-18T10:44:05.967Z,100487.10
2017-09-18T10:45:16.666Z,100482.21
2017-09-18T10:46:25.802Z,100477.58
2017-09-18T10:47:36.821Z,100482.14
2017-09-18T10:48:46.179Z,100481.39
2017-09-18T10:49:55.801Z,100477.98
2017-09-18T10:51:06.064Z,100481.66
2017-09-18T10:52:15.787Z,100482.91
2017-09-18T10:53:26.847Z,100472.59
2017-09-18T10:54:35.802Z,100486.11
2017-09-18T10:55:45.693Z,100479.98
2017-09-18T10:56:55.908Z,100477.87
2017-09-18T10:58:05.087Z,100479.77
2017-09-18T10:59:13.796Z,100475.86
2017-09-18T11:00:23.735Z,100476.05
2017-09-18T11:01:33.061Z,100479.70
2017-09-18T11:02:42.852Z,100478.75
2017-09-18T11:03:53.005Z,100478.17
2017-09-18T11:05:03.066Z,100478.77
2017-09-18T11:06:12.823Z,100477.41
2017-09-18T11:07:23.827Z,100474.77
2017-09-18T11:08:34.795Z,100481.77
2017-09-18T11:09:45.897Z,100469.27
2017-09-18T11:10:54.718Z,100466.17
2017-09-18T11:12:04.806Z,100470.13
2017-09-18T11:13:16.797Z,100465.86
2017-09-18T11:14:25.829Z,100468.69
2017-09-18T11:15:36.972Z,100466.75
2017-09-18T11:16:46.778Z,100473.41
2017-09-18T11:17:56.675Z,100473.63
2017-09-18T11:19:05.715Z,100464.51
2017-09-18T11:20:15.788Z,100464.95
2017-09-18T11:21:25.701Z,100466.83
2017-09-18T11:22:37.465Z,100462.64
2017-09-18T11:23:47.725Z,100463.16
2017-09-18T11:24:58.628Z,100461.00
2017-09-18T11:26:07.790Z,100465.23
2017-09-18T11:27:16.888Z,100459.33
2017-09-18T11:28:27.775Z,100460.11
2017-09-18T11:29:36.775Z,100464.48
2017-09-18T11:30:47.709Z,100455.99
2017-09-18T11:31:58.847Z,100453.86
2017-09-18T11:33:09.793Z,100459.20
2017-09-18T11:34:18.800Z,100454.55
2017-09-18T11:35:27.809Z,100450.56
2017-09-18T11:36:37.718Z,100461.68
2017-09-18T11:37:47.711Z,100458.11
2017-09-18T11:38:57.212Z,100451.52
2017-09-18T11:40:07.754Z,100451.56
2017-09-18T11:41:17.898Z,100456.03
2017-09-18T11:42:27.860Z,100452.85
2017-09-18T11:43:38.743Z,100454.89
2017-09-18T11:44:48.827Z,100453.95
2017-09-18T11:45:57.726Z,100452.88
2017-09-18T11:47:07.671Z,100457.55
2017-09-18T11:48:16.658Z,100452.11
2017-09-18T11:49:26.628Z,100453.75
2017-09-18T11:50:37.790Z,100456.02
2017-09-18T11:51:47.655Z,100458.41
2017-09-18T11:52:56.689Z,100450.76
2017-09-18T11:54:08.704Z,100448.11
2017-09-18T11:55:19.756Z,100454.46
2017-09-18T11:56:29.645Z,100447.16
2017-09-18T11:57:39.660Z,100449.06
2017-09-18T11:58:49.756Z,100453.81
2017-09-18T12:00:00.819Z,100447.78
2017-09-18T12:01:09.758Z,100444.78
2017-09-18T12:02:19.670Z,100449.88
2017-09-18T12:03:29.723Z,100452.28
2017-09-18T12:04:39.734Z,100447.75
2017-09-18T12:05:49.716Z,100444.75
2017-09-18T12:07:01.720Z,100447.66
2017-09-18T12:08:12.641Z,100440.55
2017-09-18T12:09:22.628Z,100438.70
2017-09-18T12:10:31.658Z,100440.56
2017-09-18T12:11:40.657Z,100436.72
2017-09-18T12:12:52.733Z,100436.09
2017-09-18T12:14:02.024Z,100432.30
2017-09-18T12:15:11.715Z,100431.48
2017-09-18T12:16:21.633Z,100439.80
2017-09-18T12:17:31.529Z,100439.95
2017-09-18T12:18:42.018Z,100431.97
2017-09-18T12:19:51.621Z,100439.46
2017-09-18T12:21:02.746Z,100443.65
2017-09-18T12:22:13.721Z,100440.23
2017-09-18T12:23:22.991Z,100436.11
2017-09-18T12:24:32.788Z,100436.54
2017-09-18T12:25:45.829Z,100440.87
2017-09-18T12:26:54.721Z,100436.64
2017-09-18T12:28:04.844Z,100444.94
2017-09-18T12:29:15.653Z,100445.98
2017-09-18T12:30:26.561Z,100444.20
2017-09-18T12:31:35.638Z,100441.31
2017-09-18T12:32:45.583Z,100444.92
2017-09-18T12:33:55.667Z,100442.55
2017-09-18T12:35:05.669Z,100445.05
2017-09-18T12:36:17.743Z,100443.52
2017-09-18T12:37:28.297Z,100444.22
2017-09-18T12:38:37.652Z,100441.77
2017-09-18T12:39:46.564Z,100439.18
2017-09-18T12:40:55.659Z,100441.38
2017-09-18T12:42:04.785Z,100440.91
2017-09-18T12:43:15.572Z,100445.30
2017-09-18T12:44:26.526Z,100445.89
2017-09-18T12:45:37.724Z,100448.25
2017-09-18T12:46:48.603Z,100446.11
2017-09-18T12:47:59.616Z,100443.96
2017-09-18T12:49:08.905Z,100444.78
2017-09-18T12:50:20.652Z,100451.39
2017-09-18T12:51:32.522Z,100444.46
2017-09-18T12:52:42.512Z,100450.37
2017-09-18T12:53:52.641Z,100447.34
2017-09-18T12:55:01.690Z,100447.43
2017-09-18T12:56:11.673Z,100445.91
2017-09-18T12:57:21.636Z,100447.19
2017-09-18T12:58:31.501Z,100447.23
2017-09-18T12:59:41.527Z,100449.77
2017-09-18T13:00:51.613Z,100444.25
2017-09-18T13:02:02.685Z,100443.71
2017-09-18T13:03:13.529Z,100448.81
2017-09-18T13:04:24.439Z,100445.86
2017-09-18T13:05:33.602Z,100440.75
2017-09-18T13:06:43.741Z,100437.23
2017-09-18T13:07:54.520Z,100436.73
2017-09-18T13:09:04.550Z,100444.20
2017-09-18T13:10:14.609Z,100439.51